createdAt,value
2018-09-02T00:00:56.764Z,17.00
2018-09-02T00:05:00.108Z,16.90
2018-09-02T00:09:04.142Z,16.90
2018-09-02T00:13:07.533Z,16.90
2018-09-02T00:17:10.883Z,16.80
2018-09-02T00:21:14.203Z,16.80
2018-09-02T00:25:17.622Z,16.70
2018-09-02T00:29:20.959Z,16.70
2018-09-02T00:33:24.394Z,16.60
2018-09-02T00:37:27.736Z,16.50
2018-09-02T00:41:31.143Z,16.50
2018-09-02T00:45:34.517Z,16.40
2018-09-02T00:49:37.851Z,16.40
2018-09-02T00:53:41.238Z,16.30
2018-09-02T00:57:44.591Z,16.30
2018-09-02T01:01:47.935Z,16.20
2018-09-02T01:05:51.923Z,16.20
2018-09-02T01:09:55.292Z,16.20
2018-09-02T01:13:58.663Z,16.10
2018-09-02T01:18:02.004Z,16.10
2018-09-02T01:22:05.411Z,16.10
2018-09-02T01:26:08.740Z,16.10
2018-09-02T01:30:12.140Z,16.10
2018-09-02T01:34:15.452Z,16.00
2018-09-02T01:38:18.846Z,16.10
2018-09-02T01:42:22.187Z,16.00
2018-09-02T01:46:25.511Z,15.90
2018-09-02T01:50:28.889Z,15.90
2018-09-02T01:54:32.202Z,15.90
2018-09-02T01:58:35.527Z,15.80
2018-09-02T02:02:38.856Z,15.70
2018-09-02T02:06:42.208Z,15.70
2018-09-02T02:10:45.565Z,15.60
2018-09-02T02:14:48.884Z,15.50
2018-09-02T02:18:52.224Z,15.40
2018-09-02T02:22:55.560Z,15.30
2018-09-02T02:26:58.936Z,15.30
2018-09-02T02:31:02.264Z,15.20
2018-09-02T02:35:05.612Z,15.10
2018-09-02T02:39:10.631Z,15.00
2018-09-02T02:43:13.980Z,14.90
2018-09-02T02:47:17.310Z,14.90
2018-09-02T02:51:20.739Z,14.80
2018-09-02T02:55:24.048Z,14.70
2018-09-02T02:59:27.444Z,14.60
2018-09-02T03:03:30.780Z,14.50
2018-09-02T03:07:34.142Z,14.50
2018-09-02T03:11:37.499Z,14.40
2018-09-02T03:15:40.837Z,14.30
2018-09-02T03:19:44.207Z,14.30
2018-09-02T03:23:47.555Z,14.20
2018-09-02T03:27:50.880Z,14.10
2018-09-02T03:31:54.202Z,14.10
2018-09-02T03:35:57.511Z,14.00
2018-09-02T03:40:00.831Z,13.90
2018-09-02T03:44:04.188Z,13.90
2018-09-02T03:48:07.531Z,13.80
2018-09-02T03:52:10.851Z,13.70
2018-09-02T03:56:14.185Z,13.60
2018-09-02T04:00:17.549Z,13.60
2018-09-02T04:04:20.889Z,13.50
2018-09-02T04:08:24.245Z,13.40
2018-09-02T04:12:27.591Z,13.40
2018-09-02T04:16:30.928Z,13.30
2018-09-02T04:20:36.351Z,13.20
2018-09-02T04:24:39.676Z,13.20
2018-09-02T04:28:43.028Z,13.10
2018-09-02T04:32:46.369Z,13.10
2018-09-02T04:36:49.702Z,13.00
2018-09-02T04:40:53.063Z,13.00
2018-09-02T04:44:56.402Z,13.00
2018-09-02T04:48:59.722Z,12.90
2018-09-02T04:53:03.058Z,12.90
2018-09-02T04:57:06.970Z,12.90
2018-09-02T05:01:10.268Z,12.90
2018-09-02T05:05:13.657Z,12.80
2018-09-02T05:09:17.022Z,12.80
2018-09-02T05:13:20.373Z,12.80
2018-09-02T05:17:26.129Z,12.80
2018-09-02T05:21:29.496Z,12.80
2018-09-02T05:25:32.843Z,12.90
2018-09-02T05:29:37.028Z,12.90
2018-09-02T05:33:40.380Z,12.90
2018-09-02T05:37:43.719Z,12.90
2018-09-02T05:41:47.058Z,12.90
2018-09-02T05:45:50.388Z,13.00
2018-09-02T05:49:53.740Z,13.00
2018-09-02T05:53:57.067Z,13.00
2018-09-02T05:58:00.407Z,13.10
2018-09-02T06:02:03.940Z,13.10
2018-09-02T06:06:07.310Z,13.10
2018-09-02T06:10:10.755Z,13.20
2018-09-02T06:14:14.120Z,13.20
2018-09-02T06:18:17.447Z,13.30
2018-09-02T06:22:20.778Z,13.40
2018-09-02T06:26:24.253Z,13.40
2018-09-02T06:30:27.590Z,13.50
2018-09-02T06:34:30.936Z,13.50
2018-09-02T06:38:34.287Z,13.60
2018-09-02T06:42:37.615Z,13.70
2018-09-02T06:46:40.976Z,13.70
2018-09-02T06:50:44.328Z,13.80
2018-09-02T06:54:47.648Z,13.90
2018-09-02T06:58:50.987Z,14.00
2018-09-02T07:02:54.316Z,14.10
2018-09-02T07:06:57.703Z,14.20
2018-09-02T07:11:01.056Z,14.30
2018-09-02T07:15:07.620Z,14.50
2018-09-02T07:19:11.042Z,14.60
2018-09-02T07:27:17.413Z,14.90
2018-09-02T07:31:20.834Z,15.10
2018-09-02T07:35:24.135Z,15.30
2018-09-02T07:39:27.478Z,15.50
2018-09-02T07:43:30.804Z,15.80
2018-09-02T07:47:34.169Z,16.10
2018-09-02T07:51:37.512Z,16.30
2018-09-02T07:55:40.844Z,16.50
2018-09-02T07:59:44.259Z,16.80
2018-09-02T08:03:47.558Z,17.10
2018-09-02T08:07:56.145Z,17.30
2018-09-02T08:11:59.497Z,17.60
2018-09-02T08:16:02.846Z,17.90
2018-09-02T08:20:06.416Z,18.10
2018-09-02T08:24:09.751Z,18.30
2018-09-02T08:28:13.088Z,18.60
2018-09-02T08:32:16.424Z,18.80
2018-09-02T08:36:19.778Z,19.00
2018-09-02T08:40:23.152Z,19.20
2018-09-02T08:44:26.509Z,19.40
2018-09-02T08:48:29.859Z,19.70
2018-09-02T08:52:33.224Z,19.90
2018-09-02T08:56:36.643Z,20.20
2018-09-02T09:00:40.120Z,20.40
2018-09-02T09:04:43.471Z,20.60
2018-09-02T09:08:46.926Z,20.90
2018-09-02T09:12:50.187Z,21.00
2018-09-02T09:16:53.553Z,21.20
2018-09-02T09:20:56.976Z,21.40
2018-09-02T09:25:00.319Z,21.60
2018-09-02T09:29:03.702Z,21.70
2018-09-02T09:33:07.225Z,21.90
2018-09-02T09:37:10.642Z,22.10
2018-09-02T09:41:14.004Z,22.30
2018-09-02T09:45:17.365Z,22.50
2018-09-02T09:49:20.764Z,22.70
2018-09-02T09:53:24.110Z,22.90
2018-09-02T09:57:27.460Z,23.10
2018-09-02T10:01:30.789Z,23.20
2018-09-02T10:05:34.129Z,23.40
2018-09-02T10:13:41.471Z,23.70
2018-09-02T10:17:44.877Z,23.90
2018-09-02T10:21:48.228Z,24.00
2018-09-02T10:25:51.575Z,24.10
2018-09-02T10:33:58.040Z,24.30
2018-09-02T10:38:01.396Z,24.40
2018-09-02T10:42:04.747Z,24.60
2018-09-02T10:46:08.083Z,24.70
2018-09-02T10:50:12.091Z,24.80
2018-09-02T10:54:15.428Z,25.00
2018-09-02T10:58:18.860Z,25.10
2018-09-02T11:02:22.390Z,25.30
2018-09-02T11:06:25.734Z,25.50
2018-09-02T11:10:29.088Z,25.60
2018-09-02T11:14:32.436Z,25.70
2018-09-02T11:18:35.955Z,25.80
2018-09-02T11:26:42.365Z,25.90
2018-09-02T11:30:45.863Z,26.10
2018-09-02T11:34:49.243Z,26.20
2018-09-02T11:38:52.583Z,26.30
2018-09-02T11:42:55.934Z,26.40
2018-09-02T11:46:59.386Z,26.60
2018-09-02T11:51:02.657Z,26.70
2018-09-02T11:55:06.009Z,26.70
2018-09-02T11:59:09.360Z,26.80
2018-09-02T12:03:12.753Z,26.90
2018-09-02T12:07:16.120Z,27.00
2018-09-02T12:11:19.662Z,27.00
2018-09-02T12:15:23.221Z,27.10
2018-09-02T12:19:26.803Z,27.10
2018-09-02T12:23:30.144Z,27.10
2018-09-02T12:27:33.471Z,27.20
2018-09-02T12:31:36.881Z,27.20
2018-09-02T12:35:40.240Z,27.20
2018-09-02T12:39:43.590Z,27.20
2018-09-02T12:43:46.948Z,27.20
2018-09-02T12:47:50.411Z,27.20
2018-09-02T12:51:53.843Z,27.20
2018-09-02T12:55:57.103Z,27.30
2018-09-02T13:00:00.510Z,27.40
2018-09-02T13:04:03.903Z,27.50
2018-09-02T13:08:07.297Z,27.40
2018-09-02T13:12:11.589Z,27.40
2018-09-02T13:16:14.914Z,27.40
2018-09-02T13:20:18.247Z,27.30
2018-09-02T13:24:21.590Z,27.10
2018-09-02T13:28:25.268Z,27.00
2018-09-02T13:32:28.627Z,26.80
2018-09-02T13:36:32.025Z,26.70
2018-09-02T13:40:35.362Z,26.60
2018-09-02T13:44:38.716Z,26.50
2018-09-02T13:48:42.058Z,26.40
2018-09-02T13:52:45.385Z,26.30
2018-09-02T13:56:48.755Z,26.20
2018-09-02T14:00:52.124Z,26.10
2018-09-02T14:04:55.426Z,26.10
2018-09-02T14:08:58.757Z,26.00
2018-09-02T14:13:02.172Z,26.00
2018-09-02T14:17:05.582Z,26.00
2018-09-02T14:21:08.949Z,26.00
2018-09-02T14:25:12.278Z,26.00
2018-09-02T14:29:15.619Z,26.00
2018-09-02T14:33:25.643Z,26.00
2018-09-02T14:37:28.972Z,26.00
2018-09-02T14:41:32.409Z,25.90
2018-09-02T14:45:35.820Z,25.80
2018-09-02T14:49:39.156Z,25.70
2018-09-02T14:53:42.492Z,25.60
2018-09-02T14:57:45.834Z,25.50
2018-09-02T15:01:49.172Z,25.50
2018-09-02T15:05:52.528Z,25.40
2018-09-02T15:09:56.131Z,25.30
2018-09-02T15:13:59.461Z,25.20
2018-09-02T15:18:02.807Z,25.20
2018-09-02T15:22:06.228Z,25.10
2018-09-02T15:26:09.564Z,25.00
2018-09-02T15:30:12.931Z,25.00
2018-09-02T15:34:16.299Z,24.90
2018-09-02T15:38:19.669Z,24.90
2018-09-02T15:42:23.019Z,24.80
2018-09-02T15:46:26.367Z,24.80
2018-09-02T15:50:29.676Z,24.70
2018-09-02T15:54:33.027Z,24.60
2018-09-02T15:58:36.369Z,24.50
2018-09-02T16:02:39.696Z,24.50
2018-09-02T16:06:43.052Z,24.50
2018-09-02T16:10:46.375Z,24.50
2018-09-02T16:14:49.731Z,24.60
2018-09-02T16:18:53.051Z,24.60
2018-09-02T16:22:56.375Z,24.60
2018-09-02T16:26:59.719Z,24.70
2018-09-02T16:31:03.162Z,24.60
2018-09-02T16:35:06.820Z,24.60
2018-09-02T16:39:11.401Z,24.40
2018-09-02T16:43:14.728Z,24.30
2018-09-02T16:47:18.059Z,24.20
2018-09-02T16:51:21.440Z,24.20
2018-09-02T16:55:24.757Z,24.10
2018-09-02T16:59:28.091Z,24.10
2018-09-02T17:03:36.515Z,24.00
2018-09-02T17:07:45.456Z,23.90
2018-09-02T17:11:48.910Z,23.80
2018-09-02T17:15:52.168Z,23.70
2018-09-02T17:19:58.537Z,23.60
2018-09-02T17:24:01.867Z,23.60
2018-09-02T17:28:05.495Z,23.50
2018-09-02T17:32:13.152Z,23.50
2018-09-02T17:36:16.447Z,23.40
2018-09-02T17:40:25.156Z,23.40
2018-09-02T17:44:28.541Z,23.30
2018-09-02T17:48:31.941Z,23.30
2018-09-02T17:52:35.303Z,23.30
2018-09-02T17:56:38.650Z,23.20
2018-09-02T18:00:44.619Z,23.10
2018-09-02T18:04:48.105Z,23.10
2018-09-02T18:08:51.546Z,23.00
2018-09-02T18:12:57.400Z,22.90
2018-09-02T18:17:00.963Z,22.90
2018-09-02T18:21:04.393Z,22.80
2018-09-02T18:25:07.867Z,22.80
2018-09-02T18:29:11.346Z,22.80
2018-09-02T18:33:14.820Z,22.70
2018-09-02T18:37:18.164Z,22.70
2018-09-02T18:41:21.605Z,22.60
2018-09-02T18:45:25.007Z,22.60
2018-09-02T18:49:28.340Z,22.50
2018-09-02T18:53:31.659Z,22.50
2018-09-02T18:57:34.976Z,22.50
2018-09-02T19:01:43.641Z,22.40
2018-09-02T19:05:46.975Z,22.40
2018-09-02T19:09:50.388Z,22.30
2018-09-02T19:13:53.670Z,22.30
2018-09-02T19:17:56.983Z,22.30
2018-09-02T19:22:00.468Z,22.20
2018-09-02T19:26:03.793Z,22.20
2018-09-02T19:30:07.500Z,22.10
2018-09-02T19:34:10.829Z,22.10
2018-09-02T19:38:14.172Z,22.10
2018-09-02T19:42:17.501Z,22.00
2018-09-02T19:46:21.207Z,22.00
2018-09-02T19:50:24.565Z,21.90
2018-09-02T19:54:27.962Z,21.90
2018-09-02T19:58:31.287Z,21.90
2018-09-02T20:02:34.636Z,21.90
2018-09-02T20:06:38.181Z,21.90
2018-09-02T20:10:41.571Z,21.80
2018-09-02T20:14:44.938Z,21.80
2018-09-02T20:18:48.304Z,21.80
2018-09-02T20:22:51.649Z,21.80
2018-09-02T20:26:54.991Z,21.80
2018-09-02T20:30:58.420Z,21.80
2018-09-02T20:35:01.750Z,21.80
2018-09-02T20:39:07.796Z,21.80
2018-09-02T20:43:11.145Z,21.80
2018-09-02T20:47:14.504Z,21.80
2018-09-02T20:51:18.072Z,21.80
2018-09-02T20:55:21.385Z,21.80
2018-09-02T20:59:24.696Z,21.80
2018-09-02T21:03:28.416Z,21.70
2018-09-02T21:07:31.783Z,21.70
2018-09-02T21:11:35.191Z,21.70
2018-09-02T21:15:38.521Z,21.70
2018-09-02T21:19:41.868Z,21.70
2018-09-02T21:23:45.197Z,21.60
2018-09-02T21:27:48.545Z,21.60
2018-09-02T21:31:51.956Z,21.60
2018-09-02T21:35:55.323Z,21.60
2018-09-02T21:39:58.671Z,21.50
2018-09-02T21:44:02.004Z,21.50
2018-09-02T21:48:05.321Z,21.40
2018-09-02T21:52:08.637Z,21.40
2018-09-02T21:56:11.960Z,21.40
2018-09-02T22:00:16.528Z,21.40
2018-09-02T22:04:19.842Z,21.30
2018-09-02T22:08:23.200Z,21.30
2018-09-02T22:12:26.536Z,21.30
2018-09-02T22:16:29.865Z,21.20
2018-09-02T22:20:33.200Z,21.20
2018-09-02T22:24:37.374Z,21.20
2018-09-02T22:28:40.720Z,21.20
2018-09-02T22:32:44.054Z,21.20
2018-09-02T22:36:47.396Z,21.10
2018-09-02T22:40:50.843Z,21.10
2018-09-02T22:45:00.704Z,21.10
2018-09-02T22:49:04.035Z,21.00
2018-09-02T22:53:07.413Z,21.00
2018-09-02T22:57:10.740Z,20.90
2018-09-02T23:01:14.348Z,20.90
2018-09-02T23:05:17.684Z,20.90
2018-09-02T23:09:21.049Z,20.90
2018-09-02T23:13:24.380Z,20.90
2018-09-02T23:17:27.767Z,20.80
2018-09-02T23:21:31.060Z,20.80
2018-09-02T23:25:34.403Z,20.70
2018-09-02T23:29:37.736Z,20.70
2018-09-02T23:33:41.097Z,20.70
2018-09-02T23:37:44.419Z,20.70
2018-09-02T23:41:47.743Z,20.70
2018-09-02T23:45:51.085Z,20.70
2018-09-02T23:49:54.444Z,20.60
2018-09-02T23:53:57.835Z,20.60
2018-09-02T23:58:01.184Z,20.60
